sensor_id;sensor_type;location;lat;lon;timestamp;P1;durP1;ratioP1;P2;durP2;ratioP2
56997;SDS011;42890;44.244;22.530;2024-02-15T00:01:58;40.10;;;31.08;;
56997;SDS011;42890;44.244;22.530;2024-02-15T00:04:24;67.95;;;45.58;;
56997;SDS011;42890;44.244;22.530;2024-02-15T00:06:51;52.53;;;36.63;;
56997;SDS011;42890;44.244;22.530;2024-02-15T00:09:17;52.50;;;33.50;;
56997;SDS011;42890;44.244;22.530;2024-02-15T00:11:43;54.05;;;36.35;;
56997;SDS011;42890;44.244;22.530;2024-02-15T00:14:09;146.55;;;58.63;;
56997;SDS011;42890;44.244;22.530;2024-02-15T00:16:37;78.53;;;40.90;;
56997;SDS011;42890;44.244;22.530;2024-02-15T00:19:03;84.57;;;40.17;;
56997;SDS011;42890;44.244;22.530;2024-02-15T00:21:29;72.43;;;41.20;;
56997;SDS011;42890;44.244;22.530;2024-02-15T00:23:55;132.32;;;55.47;;
56997;SDS011;42890;44.244;22.530;2024-02-15T00:26:22;160.55;;;59.90;;
56997;SDS011;42890;44.244;22.530;2024-02-15T00:28:48;212.02;;;71.07;;
56997;SDS011;42890;44.244;22.530;2024-02-15T00:31:14;100.20;;;47.75;;
56997;SDS011;42890;44.244;22.530;2024-02-15T00:33:40;103.15;;;41.20;;
56997;SDS011;42890;44.244;22.530;2024-02-15T00:36:06;109.22;;;44.10;;
56997;SDS011;42890;44.244;22.530;2024-02-15T00:38:33;156.48;;;53.42;;
56997;SDS011;42890;44.244;22.530;2024-02-15T00:41:00;65.38;;;36.75;;
56997;SDS011;42890;44.244;22.530;2024-02-15T00:43:26;126.47;;;51.63;;
56997;SDS011;42890;44.244;22.530;2024-02-15T00:45:53;80.95;;;42.38;;
56997;SDS011;42890;44.244;22.530;2024-02-15T00:48:19;71.05;;;38.00;;
56997;SDS011;42890;44.244;22.530;2024-02-15T00:50:45;113.22;;;48.67;;
56997;SDS011;42890;44.244;22.530;2024-02-15T00:53:11;144.50;;;59.25;;
56997;SDS011;42890;44.244;22.530;2024-02-15T00:55:38;72.15;;;38.10;;
56997;SDS011;42890;44.244;22.530;2024-02-15T00:58:04;51.42;;;29.40;;
56997;SDS011;42890;44.244;22.530;2024-02-15T01:00:30;112.20;;;47.15;;
56997;SDS011;42890;44.244;22.530;2024-02-15T01:02:56;167.50;;;60.70;;
56997;SDS011;42890;44.244;22.530;2024-02-15T01:05:23;104.35;;;46.65;;
56997;SDS011;42890;44.244;22.530;2024-02-15T01:07:49;114.38;;;45.25;;
56997;SDS011;42890;44.244;22.530;2024-02-15T01:10:15;88.00;;;38.25;;
56997;SDS011;42890;44.244;22.530;2024-02-15T01:12:42;55.63;;;32.95;;
56997;SDS011;42890;44.244;22.530;2024-02-15T01:15:09;70.53;;;37.65;;
56997;SDS011;42890;44.244;22.530;2024-02-15T01:17:35;60.70;;;36.42;;
56997;SDS011;42890;44.244;22.530;2024-02-15T01:20:01;73.55;;;41.50;;
56997;SDS011;42890;44.244;22.530;2024-02-15T01:22:27;72.38;;;37.67;;
56997;SDS011;42890;44.244;22.530;2024-02-15T01:24:54;61.33;;;35.92;;
56997;SDS011;42890;44.244;22.530;2024-02-15T01:27:22;54.47;;;31.25;;
56997;SDS011;42890;44.244;22.530;2024-02-15T01:29:48;37.25;;;24.67;;
56997;SDS011;42890;44.244;22.530;2024-02-15T01:32:14;82.68;;;44.10;;
56997;SDS011;42890;44.244;22.530;2024-02-15T01:34:40;69.65;;;36.22;;
56997;SDS011;42890;44.244;22.530;2024-02-15T01:37:07;135.13;;;52.13;;
56997;SDS011;42890;44.244;22.530;2024-02-15T01:39:34;90.47;;;41.13;;
56997;SDS011;42890;44.244;22.530;2024-02-15T01:42:00;195.25;;;65.05;;
56997;SDS011;42890;44.244;22.530;2024-02-15T01:44:28;82.00;;;30.73;;
56997;SDS011;42890;44.244;22.530;2024-02-15T01:46:54;42.10;;;22.75;;
56997;SDS011;42890;44.244;22.530;2024-02-15T01:49:21;88.38;;;37.40;;
56997;SDS011;42890;44.244;22.530;2024-02-15T01:51:47;88.15;;;38.65;;
56997;SDS011;42890;44.244;22.530;2024-02-15T01:54:15;74.75;;;36.97;;
56997;SDS011;42890;44.244;22.530;2024-02-15T01:56:42;33.08;;;20.35;;
56997;SDS011;42890;44.244;22.530;2024-02-15T01:59:08;52.47;;;28.92;;
56997;SDS011;42890;44.244;22.530;2024-02-15T02:01:36;70.35;;;39.97;;
56997;SDS011;42890;44.244;22.530;2024-02-15T02:04:02;30.10;;;20.38;;
56997;SDS011;42890;44.244;22.530;2024-02-15T02:06:29;48.40;;;27.40;;
56997;SDS011;42890;44.244;22.530;2024-02-15T02:08:56;32.60;;;18.55;;
56997;SDS011;42890;44.244;22.530;2024-02-15T02:11:22;37.35;;;22.33;;
56997;SDS011;42890;44.244;22.530;2024-02-15T02:13:49;44.88;;;27.15;;
56997;SDS011;42890;44.244;22.530;2024-02-15T02:16:26;32.38;;;22.40;;
56997;SDS011;42890;44.244;22.530;2024-02-15T02:18:54;54.28;;;36.45;;
56997;SDS011;42890;44.244;22.530;2024-02-15T02:21:20;35.28;;;27.52;;
56997;SDS011;42890;44.244;22.530;2024-02-15T02:23:48;26.80;;;18.80;;
56997;SDS011;42890;44.244;22.530;2024-02-15T02:26:16;22.08;;;18.38;;
56997;SDS011;42890;44.244;22.530;2024-02-15T02:28:42;31.38;;;24.38;;
56997;SDS011;42890;44.244;22.530;2024-02-15T02:31:09;25.88;;;19.80;;
56997;SDS011;42890;44.244;22.530;2024-02-15T02:33:36;25.00;;;20.35;;
56997;SDS011;42890;44.244;22.530;2024-02-15T02:36:03;27.27;;;21.15;;
56997;SDS011;42890;44.244;22.530;2024-02-15T02:38:32;17.27;;;13.27;;
56997;SDS011;42890;44.244;22.530;2024-02-15T02:40:58;42.95;;;32.60;;
56997;SDS011;42890;44.244;22.530;2024-02-15T02:43:24;29.05;;;20.60;;
56997;SDS011;42890;44.244;22.530;2024-02-15T02:45:50;26.70;;;19.88;;
56997;SDS011;42890;44.244;22.530;2024-02-15T02:48:17;26.52;;;20.20;;
56997;SDS011;42890;44.244;22.530;2024-02-15T02:50:43;18.75;;;14.77;;
56997;SDS011;42890;44.244;22.530;2024-02-15T02:53:09;25.50;;;17.65;;
56997;SDS011;42890;44.244;22.530;2024-02-15T02:55:36;21.65;;;17.60;;
56997;SDS011;42890;44.244;22.530;2024-02-15T02:58:03;23.70;;;17.48;;
56997;SDS011;42890;44.244;22.530;2024-02-15T03:00:30;29.35;;;23.17;;
56997;SDS011;42890;44.244;22.530;2024-02-15T03:02:57;19.70;;;14.85;;
56997;SDS011;42890;44.244;22.530;2024-02-15T03:05:23;19.70;;;14.88;;
56997;SDS011;42890;44.244;22.530;2024-02-15T03:07:49;20.60;;;15.27;;
56997;SDS011;42890;44.244;22.530;2024-02-15T03:10:17;13.50;;;12.10;;
56997;SDS011;42890;44.244;22.530;2024-02-15T03:12:43;22.10;;;14.27;;
56997;SDS011;42890;44.244;22.530;2024-02-15T03:15:13;32.33;;;21.05;;
56997;SDS011;42890;44.244;22.530;2024-02-15T03:17:40;47.63;;;29.75;;
56997;SDS011;42890;44.244;22.530;2024-02-15T03:20:07;28.30;;;21.10;;
56997;SDS011;42890;44.244;22.530;2024-02-15T03:22:50;26.17;;;20.30;;
56997;SDS011;42890;44.244;22.530;2024-02-15T03:25:17;27.83;;;23.57;;
56997;SDS011;42890;44.244;22.530;2024-02-15T03:27:43;22.05;;;18.48;;
56997;SDS011;42890;44.244;22.530;2024-02-15T03:30:10;21.27;;;18.08;;
56997;SDS011;42890;44.244;22.530;2024-02-15T03:32:36;19.95;;;15.20;;
56997;SDS011;42890;44.244;22.530;2024-02-15T03:35:02;17.77;;;15.73;;
56997;SDS011;42890;44.244;22.530;2024-02-15T03:37:28;16.42;;;13.68;;
56997;SDS011;42890;44.244;22.530;2024-02-15T03:39:54;15.10;;;13.07;;
56997;SDS011;42890;44.244;22.530;2024-02-15T03:42:21;23.00;;;19.30;;
56997;SDS011;42890;44.244;22.530;2024-02-15T03:44:47;17.98;;;15.98;;
56997;SDS011;42890;44.244;22.530;2024-02-15T03:47:13;16.92;;;14.05;;
56997;SDS011;42890;44.244;22.530;2024-02-15T03:49:40;24.00;;;16.48;;
56997;SDS011;42890;44.244;22.530;2024-02-15T03:52:07;22.88;;;20.10;;
56997;SDS011;42890;44.244;22.530;2024-02-15T03:54:35;23.15;;;20.60;;
56997;SDS011;42890;44.244;22.530;2024-02-15T03:57:02;20.15;;;17.27;;
56997;SDS011;42890;44.244;22.530;2024-02-15T03:59:28;27.10;;;21.65;;
56997;SDS011;42890;44.244;22.530;2024-02-15T04:01:57;25.25;;;22.10;;
56997;SDS011;42890;44.244;22.530;2024-02-15T04:04:23;23.58;;;20.55;;
56997;SDS011;42890;44.244;22.530;2024-02-15T04:06:51;14.88;;;13.35;;
56997;SDS011;42890;44.244;22.530;2024-02-15T04:09:17;19.95;;;17.85;;
56997;SDS011;42890;44.244;22.530;2024-02-15T04:11:46;21.95;;;18.58;;
56997;SDS011;42890;44.244;22.530;2024-02-15T04:14:15;23.58;;;19.75;;
56997;SDS011;42890;44.244;22.530;2024-02-15T04:16:41;17.60;;;13.38;;
56997;SDS011;42890;44.244;22.530;2024-02-15T04:19:08;22.73;;;18.30;;
56997;SDS011;42890;44.244;22.530;2024-02-15T04:21:34;16.23;;;14.27;;
56997;SDS011;42890;44.244;22.530;2024-02-15T04:24:01;11.85;;;10.23;;
56997;SDS011;42890;44.244;22.530;2024-02-15T04:26:27;12.32;;;10.30;;
56997;SDS011;42890;44.244;22.530;2024-02-15T04:28:55;14.88;;;11.60;;
56997;SDS011;42890;44.244;22.530;2024-02-15T04:31:21;15.00;;;12.40;;
56997;SDS011;42890;44.244;22.530;2024-02-15T04:33:53;12.23;;;10.93;;
56997;SDS011;42890;44.244;22.530;2024-02-15T04:36:20;14.75;;;11.75;;
56997;SDS011;42890;44.244;22.530;2024-02-15T04:38:50;11.38;;;10.18;;
56997;SDS011;42890;44.244;22.530;2024-02-15T04:41:17;17.90;;;14.98;;
56997;SDS011;42890;44.244;22.530;2024-02-15T04:43:50;16.25;;;12.80;;
56997;SDS011;42890;44.244;22.530;2024-02-15T04:46:19;15.32;;;13.70;;
56997;SDS011;42890;44.244;22.530;2024-02-15T04:48:49;19.67;;;15.75;;
56997;SDS011;42890;44.244;22.530;2024-02-15T04:51:16;13.40;;;12.00;;
56997;SDS011;42890;44.244;22.530;2024-02-15T04:53:42;18.17;;;16.08;;
56997;SDS011;42890;44.244;22.530;2024-02-15T04:56:11;19.25;;;15.80;;
56997;SDS011;42890;44.244;22.530;2024-02-15T04:58:41;10.00;;;8.75;;
56997;SDS011;42890;44.244;22.530;2024-02-15T05:01:16;11.75;;;9.63;;
56997;SDS011;42890;44.244;22.530;2024-02-15T05:03:43;11.65;;;9.32;;
56997;SDS011;42890;44.244;22.530;2024-02-15T05:06:10;22.98;;;16.13;;
56997;SDS011;42890;44.244;22.530;2024-02-15T05:08:38;14.50;;;10.82;;
56997;SDS011;42890;44.244;22.530;2024-02-15T05:11:10;10.18;;;9.13;;
56997;SDS011;42890;44.244;22.530;2024-02-15T05:13:45;9.85;;;8.95;;
56997;SDS011;42890;44.244;22.530;2024-02-15T05:16:11;11.10;;;9.32;;
56997;SDS011;42890;44.244;22.530;2024-02-15T05:18:38;13.95;;;10.90;;
56997;SDS011;42890;44.244;22.530;2024-02-15T05:21:07;13.60;;;10.50;;
56997;SDS011;42890;44.244;22.530;2024-02-15T05:23:36;15.48;;;13.85;;
56997;SDS011;42890;44.244;22.530;2024-02-15T05:26:04;18.77;;;13.20;;
56997;SDS011;42890;44.244;22.530;2024-02-15T05:28:31;17.30;;;12.60;;
56997;SDS011;42890;44.244;22.530;2024-02-15T05:33:39;31.52;;;15.98;;
56997;SDS011;42890;44.244;22.530;2024-02-15T05:36:15;23.58;;;16.00;;
56997;SDS011;42890;44.244;22.530;2024-02-15T05:38:45;20.30;;;18.13;;
56997;SDS011;42890;44.244;22.530;2024-02-15T05:41:11;22.00;;;18.33;;
56997;SDS011;42890;44.244;22.530;2024-02-15T05:43:40;20.85;;;14.77;;
56997;SDS011;42890;44.244;22.530;2024-02-15T05:46:07;18.10;;;13.43;;
56997;SDS011;42890;44.244;22.530;2024-02-15T05:48:34;13.07;;;11.80;;
56997;SDS011;42890;44.244;22.530;2024-02-15T05:51:02;33.17;;;20.50;;
56997;SDS011;42890;44.244;22.530;2024-02-15T05:53:29;16.90;;;14.38;;
56997;SDS011;42890;44.244;22.530;2024-02-15T05:55:55;14.50;;;12.95;;
56997;SDS011;42890;44.244;22.530;2024-02-15T05:58:26;13.75;;;11.48;;
56997;SDS011;42890;44.244;22.530;2024-02-15T06:00:52;13.43;;;12.02;;
56997;SDS011;42890;44.244;22.530;2024-02-15T06:03:19;14.20;;;10.10;;
56997;SDS011;42890;44.244;22.530;2024-02-15T06:05:51;15.88;;;12.93;;
56997;SDS011;42890;44.244;22.530;2024-02-15T06:08:23;16.67;;;12.25;;
56997;SDS011;42890;44.244;22.530;2024-02-15T06:10:49;11.88;;;10.68;;
56997;SDS011;42890;44.244;22.530;2024-02-15T06:13:15;13.00;;;11.00;;
56997;SDS011;42890;44.244;22.530;2024-02-15T06:15:41;16.63;;;13.77;;
56997;SDS011;42890;44.244;22.530;2024-02-15T06:18:07;84.53;;;49.80;;
56997;SDS011;42890;44.244;22.530;2024-02-15T06:20:35;25.85;;;21.80;;
56997;SDS011;42890;44.244;22.530;2024-02-15T06:23:02;42.65;;;32.00;;
56997;SDS011;42890;44.244;22.530;2024-02-15T06:25:31;34.75;;;25.95;;
56997;SDS011;42890;44.244;22.530;2024-02-15T06:27:57;29.45;;;23.98;;
56997;SDS011;42890;44.244;22.530;2024-02-15T06:30:27;36.25;;;26.40;;
56997;SDS011;42890;44.244;22.530;2024-02-15T06:33:12;32.30;;;20.20;;
56997;SDS011;42890;44.244;22.530;2024-02-15T06:35:57;25.67;;;16.90;;
56997;SDS011;42890;44.244;22.530;2024-02-15T06:38:41;53.47;;;28.75;;
56997;SDS011;42890;44.244;22.530;2024-02-15T06:41:26;25.83;;;18.90;;
56997;SDS011;42890;44.244;22.530;2024-02-15T06:43:54;57.97;;;43.13;;
56997;SDS011;42890;44.244;22.530;2024-02-15T06:46:20;14.68;;;12.05;;
56997;SDS011;42890;44.244;22.530;2024-02-15T06:48:46;10.45;;;9.05;;
56997;SDS011;42890;44.244;22.530;2024-02-15T06:51:13;18.08;;;15.68;;
56997;SDS011;42890;44.244;22.530;2024-02-15T06:53:40;100.95;;;54.78;;
56997;SDS011;42890;44.244;22.530;2024-02-15T06:56:09;113.70;;;49.20;;
56997;SDS011;42890;44.244;22.530;2024-02-15T06:58:36;34.38;;;21.38;;
56997;SDS011;42890;44.244;22.530;2024-02-15T07:01:02;42.13;;;24.90;;
56997;SDS011;42890;44.244;22.530;2024-02-15T07:03:30;35.47;;;20.20;;
56997;SDS011;42890;44.244;22.530;2024-02-15T07:05:57;60.97;;;29.38;;
56997;SDS011;42890;44.244;22.530;2024-02-15T07:08:23;30.10;;;20.10;;
56997;SDS011;42890;44.244;22.530;2024-02-15T07:10:50;26.98;;;15.30;;
56997;SDS011;42890;44.244;22.530;2024-02-15T07:13:16;35.05;;;22.40;;
56997;SDS011;42890;44.244;22.530;2024-02-15T07:15:45;90.40;;;41.83;;
56997;SDS011;42890;44.244;22.530;2024-02-15T07:18:12;31.40;;;20.80;;
56997;SDS011;42890;44.244;22.530;2024-02-15T07:20:38;16.35;;;11.55;;
56997;SDS011;42890;44.244;22.530;2024-02-15T07:23:05;62.67;;;31.10;;
56997;SDS011;42890;44.244;22.530;2024-02-15T07:25:31;16.58;;;11.57;;
56997;SDS011;42890;44.244;22.530;2024-02-15T07:27:57;26.63;;;15.18;;
56997;SDS011;42890;44.244;22.530;2024-02-15T07:30:23;23.08;;;15.18;;
56997;SDS011;42890;44.244;22.530;2024-02-15T07:32:50;26.50;;;19.98;;
56997;SDS011;42890;44.244;22.530;2024-02-15T07:35:16;24.67;;;18.23;;
56997;SDS011;42890;44.244;22.530;2024-02-15T07:37:52;22.20;;;16.25;;
56997;SDS011;42890;44.244;22.530;2024-02-15T07:40:20;23.20;;;16.92;;
56997;SDS011;42890;44.244;22.530;2024-02-15T07:42:47;24.45;;;14.93;;
56997;SDS011;42890;44.244;22.530;2024-02-15T07:45:13;37.35;;;25.83;;
56997;SDS011;42890;44.244;22.530;2024-02-15T07:47:39;38.58;;;28.63;;
56997;SDS011;42890;44.244;22.530;2024-02-15T07:50:06;39.45;;;27.95;;
56997;SDS011;42890;44.244;22.530;2024-02-15T07:52:34;20.65;;;16.15;;
56997;SDS011;42890;44.244;22.530;2024-02-15T07:55:01;10.45;;;8.77;;
56997;SDS011;42890;44.244;22.530;2024-02-15T07:57:30;18.90;;;14.82;;
56997;SDS011;42890;44.244;22.530;2024-02-15T07:59:56;11.10;;;10.00;;
56997;SDS011;42890;44.244;22.530;2024-02-15T08:02:22;18.02;;;14.68;;
56997;SDS011;42890;44.244;22.530;2024-02-15T08:04:50;13.05;;;10.77;;
56997;SDS011;42890;44.244;22.530;2024-02-15T08:07:16;11.05;;;7.72;;
56997;SDS011;42890;44.244;22.530;2024-02-15T08:09:45;11.45;;;9.82;;
56997;SDS011;42890;44.244;22.530;2024-02-15T08:12:11;9.85;;;7.57;;
56997;SDS011;42890;44.244;22.530;2024-02-15T08:14:38;9.70;;;7.97;;
56997;SDS011;42890;44.244;22.530;2024-02-15T08:17:05;9.02;;;6.40;;
56997;SDS011;42890;44.244;22.530;2024-02-15T08:19:33;15.77;;;11.07;;
56997;SDS011;42890;44.244;22.530;2024-02-15T08:22:04;8.43;;;7.53;;
56997;SDS011;42890;44.244;22.530;2024-02-15T08:24:30;10.50;;;6.93;;
56997;SDS011;42890;44.244;22.530;2024-02-15T08:26:56;9.70;;;8.35;;
56997;SDS011;42890;44.244;22.530;2024-02-15T08:29:24;9.55;;;7.97;;
56997;SDS011;42890;44.244;22.530;2024-02-15T08:31:51;11.23;;;10.02;;
56997;SDS011;42890;44.244;22.530;2024-02-15T08:34:17;12.52;;;9.77;;
56997;SDS011;42890;44.244;22.530;2024-02-15T08:36:45;7.53;;;6.00;;
56997;SDS011;42890;44.244;22.530;2024-02-15T08:39:13;9.75;;;6.97;;
56997;SDS011;42890;44.244;22.530;2024-02-15T08:41:41;8.25;;;5.65;;
56997;SDS011;42890;44.244;22.530;2024-02-15T08:44:07;9.38;;;6.70;;
56997;SDS011;42890;44.244;22.530;2024-02-15T08:46:37;7.32;;;5.72;;
56997;SDS011;42890;44.244;22.530;2024-02-15T08:49:03;10.18;;;8.05;;
56997;SDS011;42890;44.244;22.530;2024-02-15T08:51:29;19.75;;;15.35;;
56997;SDS011;42890;44.244;22.530;2024-02-15T08:53:55;57.28;;;43.47;;
56997;SDS011;42890;44.244;22.530;2024-02-15T08:56:22;16.23;;;10.85;;
56997;SDS011;42890;44.244;22.530;2024-02-15T08:58:48;30.55;;;20.40;;
56997;SDS011;42890;44.244;22.530;2024-02-15T09:01:14;12.80;;;9.27;;
56997;SDS011;42890;44.244;22.530;2024-02-15T09:03:41;15.77;;;11.63;;
56997;SDS011;42890;44.244;22.530;2024-02-15T09:06:08;10.95;;;7.85;;
56997;SDS011;42890;44.244;22.530;2024-02-15T09:08:34;7.00;;;5.43;;
56997;SDS011;42890;44.244;22.530;2024-02-15T09:11:00;9.88;;;6.75;;
56997;SDS011;42890;44.244;22.530;2024-02-15T09:13:26;18.38;;;13.05;;
56997;SDS011;42890;44.244;22.530;2024-02-15T09:15:52;14.15;;;10.57;;
56997;SDS011;42890;44.244;22.530;2024-02-15T09:18:20;11.27;;;9.30;;
56997;SDS011;42890;44.244;22.530;2024-02-15T09:20:48;6.82;;;5.45;;
56997;SDS011;42890;44.244;22.530;2024-02-15T09:23:20;6.50;;;5.28;;
56997;SDS011;42890;44.244;22.530;2024-02-15T09:25:48;5.97;;;4.80;;
56997;SDS011;42890;44.244;22.530;2024-02-15T09:28:17;17.73;;;10.90;;
56997;SDS011;42890;44.244;22.530;2024-02-15T09:30:50;8.60;;;6.85;;
56997;SDS011;42890;44.244;22.530;2024-02-15T09:33:17;7.50;;;6.10;;
56997;SDS011;42890;44.244;22.530;2024-02-15T09:35:43;14.63;;;8.90;;
56997;SDS011;42890;44.244;22.530;2024-02-15T09:38:09;8.35;;;4.90;;
56997;SDS011;42890;44.244;22.530;2024-02-15T09:40:35;10.05;;;6.82;;
56997;SDS011;42890;44.244;22.530;2024-02-15T09:43:02;6.63;;;4.88;;
56997;SDS011;42890;44.244;22.530;2024-02-15T09:45:28;8.10;;;4.43;;
56997;SDS011;42890;44.244;22.530;2024-02-15T09:47:55;7.40;;;5.10;;
56997;SDS011;42890;44.244;22.530;2024-02-15T09:50:24;7.43;;;5.25;;
56997;SDS011;42890;44.244;22.530;2024-02-15T09:52:52;6.78;;;5.50;;
56997;SDS011;42890;44.244;22.530;2024-02-15T09:55:19;6.38;;;5.30;;
56997;SDS011;42890;44.244;22.530;2024-02-15T09:57:48;21.98;;;15.63;;
56997;SDS011;42890;44.244;22.530;2024-02-15T10:00:15;16.17;;;11.40;;
56997;SDS011;42890;44.244;22.530;2024-02-15T10:02:42;8.13;;;6.03;;
56997;SDS011;42890;44.244;22.530;2024-02-15T10:05:12;10.23;;;7.80;;
56997;SDS011;42890;44.244;22.530;2024-02-15T10:07:41;27.50;;;17.52;;
56997;SDS011;42890;44.244;22.530;2024-02-15T10:10:20;9.98;;;7.13;;
56997;SDS011;42890;44.244;22.530;2024-02-15T10:12:50;44.35;;;25.88;;
56997;SDS011;42890;44.244;22.530;2024-02-15T10:18:10;28.15;;;19.83;;
56997;SDS011;42890;44.244;22.530;2024-02-15T10:20:40;7.35;;;6.28;;
56997;SDS011;42890;44.244;22.530;2024-02-15T10:23:13;5.82;;;5.07;;
56997;SDS011;42890;44.244;22.530;2024-02-15T10:25:42;7.80;;;5.53;;
56997;SDS011;42890;44.244;22.530;2024-02-15T10:28:09;9.73;;;6.82;;
56997;SDS011;42890;44.244;22.530;2024-02-15T10:30:42;8.50;;;6.50;;
56997;SDS011;42890;44.244;22.530;2024-02-15T10:35:34;8.00;;;7.30;;
56997;SDS011;42890;44.244;22.530;2024-02-15T10:38:08;12.57;;;11.40;;
56997;SDS011;42890;44.244;22.530;2024-02-15T10:40:35;7.60;;;5.80;;
56997;SDS011;42890;44.244;22.530;2024-02-15T10:43:04;5.68;;;4.97;;
56997;SDS011;42890;44.244;22.530;2024-02-15T10:45:31;8.48;;;7.55;;
56997;SDS011;42890;44.244;22.530;2024-02-15T10:47:58;4.75;;;4.25;;
56997;SDS011;42890;44.244;22.530;2024-02-15T10:50:24;5.72;;;4.20;;
56997;SDS011;42890;44.244;22.530;2024-02-15T10:52:54;7.22;;;5.35;;
56997;SDS011;42890;44.244;22.530;2024-02-15T10:58:13;14.70;;;12.43;;
56997;SDS011;42890;44.244;22.530;2024-02-15T11:00:42;8.32;;;7.25;;
56997;SDS011;42890;44.244;22.530;2024-02-15T11:03:10;24.40;;;20.08;;
56997;SDS011;42890;44.244;22.530;2024-02-15T11:05:39;10.07;;;8.98;;
56997;SDS011;42890;44.244;22.530;2024-02-15T11:08:07;8.68;;;6.70;;
56997;SDS011;42890;44.244;22.530;2024-02-15T11:10:34;6.85;;;5.40;;
56997;SDS011;42890;44.244;22.530;2024-02-15T11:13:01;7.53;;;5.72;;
56997;SDS011;42890;44.244;22.530;2024-02-15T11:15:43;6.10;;;4.60;;
56997;SDS011;42890;44.244;22.530;2024-02-15T11:21:03;18.48;;;14.65;;
56997;SDS011;42890;44.244;22.530;2024-02-15T11:23:30;5.78;;;4.65;;
56997;SDS011;42890;44.244;22.530;2024-02-15T11:25:56;5.82;;;4.85;;
56997;SDS011;42890;44.244;22.530;2024-02-15T11:30:53;7.95;;;6.90;;
56997;SDS011;42890;44.244;22.530;2024-02-15T11:33:32;7.95;;;5.70;;
56997;SDS011;42890;44.244;22.530;2024-02-15T11:36:12;8.80;;;6.97;;
56997;SDS011;42890;44.244;22.530;2024-02-15T11:38:39;11.35;;;8.98;;
56997;SDS011;42890;44.244;22.530;2024-02-15T11:41:08;6.28;;;4.90;;
56997;SDS011;42890;44.244;22.530;2024-02-15T11:46:13;5.18;;;4.70;;
56997;SDS011;42890;44.244;22.530;2024-02-15T11:48:40;5.10;;;4.28;;
56997;SDS011;42890;44.244;22.530;2024-02-15T11:51:06;7.72;;;6.28;;
56997;SDS011;42890;44.244;22.530;2024-02-15T11:53:32;9.98;;;8.98;;
56997;SDS011;42890;44.244;22.530;2024-02-15T11:56:02;7.60;;;6.90;;
56997;SDS011;42890;44.244;22.530;2024-02-15T11:58:30;7.25;;;5.70;;
56997;SDS011;42890;44.244;22.530;2024-02-15T12:01:17;6.05;;;4.80;;
56997;SDS011;42890;44.244;22.530;2024-02-15T12:04:02;8.63;;;6.85;;
56997;SDS011;42890;44.244;22.530;2024-02-15T12:06:47;11.38;;;10.27;;
56997;SDS011;42890;44.244;22.530;2024-02-15T12:09:32;9.45;;;8.32;;
56997;SDS011;42890;44.244;22.530;2024-02-15T12:12:16;7.85;;;7.05;;
56997;SDS011;42890;44.244;22.530;2024-02-15T12:15:01;5.85;;;4.28;;
56997;SDS011;42890;44.244;22.530;2024-02-15T12:17:46;14.13;;;11.20;;
56997;SDS011;42890;44.244;22.530;2024-02-15T12:20:32;5.47;;;4.30;;
56997;SDS011;42890;44.244;22.530;2024-02-15T12:22:59;6.03;;;3.80;;
56997;SDS011;42890;44.244;22.530;2024-02-15T12:25:25;10.77;;;9.52;;
56997;SDS011;42890;44.244;22.530;2024-02-15T12:27:55;8.65;;;7.85;;
56997;SDS011;42890;44.244;22.530;2024-02-15T12:30:22;56.92;;;49.50;;
56997;SDS011;42890;44.244;22.530;2024-02-15T12:32:50;12.75;;;11.43;;
56997;SDS011;42890;44.244;22.530;2024-02-15T12:35:20;42.90;;;26.95;;
56997;SDS011;42890;44.244;22.530;2024-02-15T12:40:36;8.48;;;7.57;;
56997;SDS011;42890;44.244;22.530;2024-02-15T12:43:04;4.13;;;3.65;;
56997;SDS011;42890;44.244;22.530;2024-02-15T12:45:31;5.57;;;4.25;;
56997;SDS011;42890;44.244;22.530;2024-02-15T12:47:58;6.35;;;3.70;;
56997;SDS011;42890;44.244;22.530;2024-02-15T12:50:27;4.35;;;3.70;;
56997;SDS011;42890;44.244;22.530;2024-02-15T12:52:54;4.45;;;3.70;;
56997;SDS011;42890;44.244;22.530;2024-02-15T12:55:23;5.95;;;2.90;;
56997;SDS011;42890;44.244;22.530;2024-02-15T12:57:50;3.75;;;3.20;;
56997;SDS011;42890;44.244;22.530;2024-02-15T13:00:20;3.92;;;3.47;;
56997;SDS011;42890;44.244;22.530;2024-02-15T13:02:47;3.78;;;3.30;;
56997;SDS011;42890;44.244;22.530;2024-02-15T13:05:18;7.00;;;3.13;;
56997;SDS011;42890;44.244;22.530;2024-02-15T13:07:47;4.32;;;3.67;;
56997;SDS011;42890;44.244;22.530;2024-02-15T13:10:14;5.47;;;3.30;;
56997;SDS011;42890;44.244;22.530;2024-02-15T13:12:41;5.22;;;4.18;;
56997;SDS011;42890;44.244;22.530;2024-02-15T13:15:09;7.32;;;6.63;;
56997;SDS011;42890;44.244;22.530;2024-02-15T13:17:46;8.15;;;7.05;;
56997;SDS011;42890;44.244;22.530;2024-02-15T13:20:22;7.07;;;6.45;;
56997;SDS011;42890;44.244;22.530;2024-02-15T13:23:00;10.48;;;7.90;;
56997;SDS011;42890;44.244;22.530;2024-02-15T13:25:32;5.93;;;4.80;;
56997;SDS011;42890;44.244;22.530;2024-02-15T13:27:58;10.45;;;9.45;;
56997;SDS011;42890;44.244;22.530;2024-02-15T13:30:24;9.55;;;8.63;;
56997;SDS011;42890;44.244;22.530;2024-02-15T13:32:52;5.15;;;4.40;;
56997;SDS011;42890;44.244;22.530;2024-02-15T13:35:22;8.20;;;7.40;;
56997;SDS011;42890;44.244;22.530;2024-02-15T13:40:15;4.20;;;3.80;;
56997;SDS011;42890;44.244;22.530;2024-02-15T13:42:42;4.65;;;4.00;;
56997;SDS011;42890;44.244;22.530;2024-02-15T13:45:14;7.03;;;6.43;;
56997;SDS011;42890;44.244;22.530;2024-02-15T13:47:41;6.30;;;5.70;;
56997;SDS011;42890;44.244;22.530;2024-02-15T13:50:11;8.48;;;7.68;;
56997;SDS011;42890;44.244;22.530;2024-02-15T13:52:40;7.75;;;5.75;;
56997;SDS011;42890;44.244;22.530;2024-02-15T13:55:08;16.42;;;15.02;;
56997;SDS011;42890;44.244;22.530;2024-02-15T13:57:36;27.08;;;24.60;;
56997;SDS011;42890;44.244;22.530;2024-02-15T14:00:03;5.68;;;4.78;;
56997;SDS011;42890;44.244;22.530;2024-02-15T14:02:31;10.23;;;9.23;;
56997;SDS011;42890;44.244;22.530;2024-02-15T14:04:57;11.88;;;9.23;;
56997;SDS011;42890;44.244;22.530;2024-02-15T14:07:23;14.45;;;12.13;;
56997;SDS011;42890;44.244;22.530;2024-02-15T14:09:49;4.95;;;4.07;;
56997;SDS011;42890;44.244;22.530;2024-02-15T14:12:15;6.82;;;6.13;;
56997;SDS011;42890;44.244;22.530;2024-02-15T14:14:41;4.32;;;3.63;;
56997;SDS011;42890;44.244;22.530;2024-02-15T14:17:11;4.30;;;3.78;;
56997;SDS011;42890;44.244;22.530;2024-02-15T14:19:38;6.53;;;3.70;;
56997;SDS011;42890;44.244;22.530;2024-02-15T14:22:05;4.82;;;3.80;;
56997;SDS011;42890;44.244;22.530;2024-02-15T14:24:34;4.78;;;3.90;;
56997;SDS011;42890;44.244;22.530;2024-02-15T14:27:01;4.95;;;3.75;;
56997;SDS011;42890;44.244;22.530;2024-02-15T14:29:28;4.22;;;3.75;;
56997;SDS011;42890;44.244;22.530;2024-02-15T14:31:58;4.95;;;4.10;;
56997;SDS011;42890;44.244;22.530;2024-02-15T14:34:42;5.38;;;3.85;;
56997;SDS011;42890;44.244;22.530;2024-02-15T14:37:09;4.18;;;3.78;;
56997;SDS011;42890;44.244;22.530;2024-02-15T14:39:35;5.60;;;3.85;;
56997;SDS011;42890;44.244;22.530;2024-02-15T14:42:01;4.07;;;3.65;;
56997;SDS011;42890;44.244;22.530;2024-02-15T14:44:27;3.88;;;3.40;;
56997;SDS011;42890;44.244;22.530;2024-02-15T14:46:53;5.03;;;3.88;;